Time;durP1;ratioP1;P1;durP2;ratioP2;P2;SDS_P1;SDS_P2;PMS_P1;PMS_P2;Temp;Humidity;BMP_temperature;BMP_pressure;BME280_temperature;BME280_humidity;BME280_pressure;Samples;Min_cycle;Max_cycle;Signal;HPM_P1;HPM_P2
2023/10/27 08:01:05;;;;;;;0.98;0.73;;;;;;;;;;5670230;23;20092;-67
2023/10/27 08:03:32;;;;;;;1.85;0.70;;;;;;;;;;4973341;28;20050;-70
2023/10/27 08:05:58;;;;;;;1.05;0.80;;;;;;;;;;4972844;28;20026;-69
2023/10/27 08:08:23;;;;;;;2.05;0.90;;;;;;;;;;4973321;28;20090;-68
2023/10/27 08:10:49;;;;;;;0.90;0.80;;;;;;;;;;4973425;28;20531;-70
2023/10/27 08:13:20;;;;;;;1.08;0.90;;;;;;;;;;4973508;28;20419;-67
2023/10/27 08:15:46;;;;;;;2.90;0.73;;;;;;;;;;4973149;28;20085;-67
2023/10/27 08:18:13;;;;;;;1.55;0.88;;;;;;;;;;4973305;28;20034;-66
2023/10/27 08:20:39;;;;;;;1.20;1.15;;;;;;;;;;4973165;28;20035;-67
2023/10/27 08:23:04;;;;;;;1.85;1.00;;;;;;;;;;4972619;28;20022;-69
2023/10/27 08:25:30;;;;;;;2.95;1.00;;;;;;;;;;4972888;28;20046;-68
2023/10/27 08:27:55;;;;;;;1.30;1.00;;;;;;;;;;4973188;28;20122;-67
2023/10/27 08:30:21;;;;;;;1.40;0.90;;;;;;;;;;4973002;28;20031;-66
2023/10/27 08:32:46;;;;;;;1.75;0.90;;;;;;;;;;4972977;28;20042;-66
2023/10/27 08:35:12;;;;;;;1.02;0.90;;;;;;;;;;4973218;28;20050;-66
2023/10/27 08:37:37;;;;;;;1.75;1.00;;;;;;;;;;4972888;28;20046;-66
2023/10/27 08:40:04;;;;;;;1.70;1.10;;;;;;;;;;4973239;28;20023;-66
2023/10/27 08:42:33;;;;;;;3.25;0.90;;;;;;;;;;4974288;28;20062;-66
2023/10/27 08:45:00;;;;;;;1.33;0.73;;;;;;;;;;4974464;28;20030;-65
2023/10/27 08:47:33;;;;;;;3.28;1.00;;;;;;;;;;4973547;28;20054;-69
2023/10/27 08:50:04;;;;;;;2.00;0.90;;;;;;;;;;4974168;28;20027;-68
2023/10/27 08:52:32;;;;;;;2.00;0.98;;;;;;;;;;4972658;28;20026;-65
2023/10/27 08:55:02;;;;;;;5.45;0.98;;;;;;;;;;4970708;28;20037;-70
2023/10/27 08:57:28;;;;;;;1.27;0.90;;;;;;;;;;4972268;28;20030;-68
2023/10/27 08:59:54;;;;;;;1.08;0.98;;;;;;;;;;4972281;28;20056;-65
2023/10/27 09:02:30;;;;;;;2.88;1.00;;;;;;;;;;4972498;28;20047;-65
2023/10/27 09:05:04;;;;;;;0.80;0.80;;;;;;;;;;4972385;28;20500;-66
2023/10/27 09:07:31;;;;;;;1.15;0.95;;;;;;;;;;4972785;28;20027;-66
2023/10/27 09:09:58;;;;;;;0.80;0.80;;;;;;;;;;4972365;28;20053;-66
2023/10/27 09:12:25;;;;;;;2.65;1.58;;;;;;;;;;4972217;28;20081;-70
2023/10/27 09:15:05;;;;;;;1.15;0.88;;;;;;;;;;4971863;28;20038;-66
2023/10/27 09:17:31;;;;;;;0.80;0.80;;;;;;;;;;4970072;28;20042;-68
2023/10/27 09:20:07;;;;;;;1.05;0.90;;;;;;;;;;4972204;28;20495;-68
2023/10/27 09:22:33;;;;;;;1.92;1.10;;;;;;;;;;4972526;28;20427;-66
2023/10/27 09:25:17;;;;;;;1.40;0.90;;;;;;;;;;4971695;28;20027;-68
2023/10/27 09:27:44;;;;;;;2.10;1.20;;;;;;;;;;4966893;28;20030;-67
2023/10/27 09:30:12;;;;;;;1.98;1.00;;;;;;;;;;4971628;28;20031;-67
2023/10/27 09:32:40;;;;;;;0.70;0.70;;;;;;;;;;4971789;28;20022;-66
2023/10/27 09:35:17;;;;;;;2.58;1.27;;;;;;;;;;4972142;28;20073;-67
2023/10/27 09:37:46;;;;;;;3.42;0.90;;;;;;;;;;4971899;28;20062;-70
2023/10/27 09:40:13;;;;;;;1.73;0.88;;;;;;;;;;4971587;28;20687;-66
2023/10/27 09:42:39;;;;;;;4.35;0.90;;;;;;;;;;4971532;28;20030;-66
2023/10/27 09:45:13;;;;;;;1.52;0.90;;;;;;;;;;4972028;28;20030;-66
2023/10/27 09:47:47;;;;;;;9.95;1.27;;;;;;;;;;4972217;28;20037;-67
2023/10/27 09:50:15;;;;;;;2.22;1.30;;;;;;;;;;4972290;28;20488;-69
2023/10/27 09:52:43;;;;;;;5.90;1.13;;;;;;;;;;4972040;28;20031;-68
2023/10/27 09:55:12;;;;;;;10.70;2.10;;;;;;;;;;4971848;28;20081;-67
2023/10/27 09:57:44;;;;;;;2.97;1.65;;;;;;;;;;4973438;28;20380;-69
2023/10/27 10:00:13;;;;;;;3.28;1.38;;;;;;;;;;4975997;28;20031;-66
2023/10/27 10:02:41;;;;;;;1.60;1.13;;;;;;;;;;4975972;28;20117;-67
2023/10/27 10:05:09;;;;;;;1.40;1.15;;;;;;;;;;4975749;28;20062;-66
2023/10/27 10:07:52;;;;;;;3.95;1.73;;;;;;;;;;4975739;28;20035;-66
2023/10/27 10:10:34;;;;;;;2.80;1.45;;;;;;;;;;4975943;28;20035;-66
2023/10/27 10:13:09;;;;;;;8.07;2.45;;;;;;;;;;4975657;28;20035;-66
2023/10/27 10:15:43;;;;;;;6.47;2.20;;;;;;;;;;4975471;28;20093;-65
2023/10/27 10:18:20;;;;;;;4.65;1.80;;;;;;;;;;4975558;28;20123;-66
2023/10/27 10:20:58;;;;;;;11.40;2.55;;;;;;;;;;4975421;28;20042;-67
2023/10/27 10:23:50;;;;;;;9.52;2.90;;;;;;;;;;4975736;28;20027;-65
2023/10/27 10:26:15;;;;;;;7.15;2.35;;;;;;;;;;4974588;28;20026;-66
2023/10/27 10:28:41;;;;;;;7.75;1.98;;;;;;;;;;4974015;28;20587;-66
2023/10/27 10:31:06;;;;;;;3.45;1.50;;;;;;;;;;4975348;28;20050;-66
2023/10/27 10:33:34;;;;;;;4.35;1.60;;;;;;;;;;4975314;28;20550;-66
2023/10/27 10:36:15;;;;;;;4.63;1.88;;;;;;;;;;4974997;28;20066;-66
2023/10/27 10:38:40;;;;;;;3.22;1.70;;;;;;;;;;4975212;28;20061;-67
2023/10/27 10:41:06;;;;;;;6.13;1.90;;;;;;;;;;4975042;28;20066;-67
2023/10/27 10:43:39;;;;;;;4.78;1.55;;;;;;;;;;4975002;28;20603;-67
2023/10/27 10:46:06;;;;;;;5.63;1.70;;;;;;;;;;4974854;28;20117;-66
2023/10/27 10:48:44;;;;;;;4.70;1.90;;;;;;;;;;4974698;28;20034;-67
2023/10/27 10:51:14;;;;;;;3.63;1.95;;;;;;;;;;4974754;28;20037;-70
2023/10/27 10:53:40;;;;;;;8.65;2.28;;;;;;;;;;4974817;28;20042;-66
2023/10/27 10:56:06;;;;;;;4.47;2.00;;;;;;;;;;4974885;28;20026;-67
2023/10/27 10:58:36;;;;;;;5.43;2.00;;;;;;;;;;4974952;28;20035;-66
2023/10/27 11:01:03;;;;;;;5.18;2.40;;;;;;;;;;4974644;28;20106;-66
2023/10/27 11:03:34;;;;;;;10.00;2.30;;;;;;;;;;4974724;28;20468;-69
2023/10/27 11:06:03;;;;;;;5.18;2.30;;;;;;;;;;4974455;28;20039;-66
2023/10/27 11:08:34;;;;;;;7.10;2.28;;;;;;;;;;4974654;28;20399;-68
2023/10/27 11:11:05;;;;;;;4.68;1.88;;;;;;;;;;4974176;28;20030;-67
2023/10/27 11:13:33;;;;;;;10.35;2.50;;;;;;;;;;4974377;28;20030;-69
2023/10/27 11:16:00;;;;;;;6.35;2.60;;;;;;;;;;4974364;28;20081;-68
2023/10/27 11:18:31;;;;;;;5.22;2.65;;;;;;;;;;4974388;28;20027;-68
2023/10/27 11:20:57;;;;;;;5.78;2.00;;;;;;;;;;4974237;28;20365;-69
2023/10/27 11:23:30;;;;;;;4.05;1.92;;;;;;;;;;4974310;28;20034;-67
2023/10/27 11:26:05;;;;;;;6.10;2.58;;;;;;;;;;4974309;28;20050;-68
2023/10/27 11:28:37;;;;;;;3.00;1.70;;;;;;;;;;4974213;28;20031;-69
2023/10/27 11:31:03;;;;;;;3.45;2.10;;;;;;;;;;4974150;28;20046;-68
2023/10/27 11:33:29;;;;;;;4.05;1.90;;;;;;;;;;4974445;28;20045;-68
2023/10/27 11:35:58;;;;;;;3.78;1.80;;;;;;;;;;4974164;28;20357;-68
2023/10/27 11:38:31;;;;;;;3.92;1.70;;;;;;;;;;4974378;28;20102;-68
2023/10/27 11:41:10;;;;;;;3.70;2.42;;;;;;;;;;4974131;28;20033;-68
2023/10/27 11:43:35;;;;;;;4.60;2.63;;;;;;;;;;4974348;28;20018;-68
2023/10/27 11:46:18;;;;;;;4.25;1.92;;;;;;;;;;4974071;28;20026;-69
2023/10/27 11:48:44;;;;;;;3.53;1.80;;;;;;;;;;4974122;28;20027;-68
2023/10/27 11:51:11;;;;;;;2.33;1.85;;;;;;;;;;4973734;28;20018;-70
2023/10/27 11:53:43;;;;;;;2.15;1.60;;;;;;;;;;4973731;28;20034;-68
2023/10/27 11:56:09;;;;;;;6.22;1.63;;;;;;;;;;4973877;28;20054;-68
2023/10/27 11:58:35;;;;;;;3.70;1.70;;;;;;;;;;4973639;28;20027;-68
2023/10/27 12:01:00;;;;;;;4.13;1.80;;;;;;;;;;4973803;28;20050;-67
2023/10/27 12:03:26;;;;;;;2.05;1.35;;;;;;;;;;4973400;28;20067;-68
2023/10/27 12:05:52;;;;;;;2.85;1.40;;;;;;;;;;4973596;28;20030;-67
2023/10/27 12:08:17;;;;;;;1.42;1.25;;;;;;;;;;4973468;28;20041;-68
2023/10/27 12:10:43;;;;;;;5.53;1.65;;;;;;;;;;4973376;28;20031;-69
2023/10/27 12:13:08;;;;;;;1.80;1.25;;;;;;;;;;4973374;28;20022;-68
2023/10/27 12:15:35;;;;;;;4.88;1.10;;;;;;;;;;4973321;28;20042;-68
2023/10/27 12:18:04;;;;;;;7.43;1.63;;;;;;;;;;4973221;28;20030;-68
2023/10/27 12:20:31;;;;;;;17.58;2.40;;;;;;;;;;4973004;28;20030;-69
2023/10/27 12:22:57;;;;;;;4.22;1.38;;;;;;;;;;4972833;28;20029;-69
2023/10/27 12:25:22;;;;;;;4.78;1.23;;;;;;;;;;4973022;28;20491;-69
2023/10/27 12:27:48;;;;;;;10.57;2.05;;;;;;;;;;4973119;28;20108;-70
2023/10/27 12:30:17;;;;;;;23.20;1.80;;;;;;;;;;4973747;28;20034;-69
2023/10/27 12:32:44;;;;;;;5.88;1.45;;;;;;;;;;4973303;28;20031;-69
2023/10/27 12:35:11;;;;;;;15.75;1.70;;;;;;;;;;4973159;28;20054;-69
2023/10/27 12:37:36;;;;;;;9.40;1.60;;;;;;;;;;4973142;28;20435;-69
2023/10/27 12:40:04;;;;;;;13.57;1.70;;;;;;;;;;4972638;28;20034;-69
2023/10/27 12:42:30;;;;;;;1.63;1.25;;;;;;;;;;4972656;28;20107;-69
2023/10/27 12:44:57;;;;;;;5.63;1.15;;;;;;;;;;4972650;28;20110;-68
2023/10/27 12:47:22;;;;;;;8.50;1.25;;;;;;;;;;4972887;28;20027;-68
2023/10/27 12:49:48;;;;;;;7.43;1.50;;;;;;;;;;4972968;28;20731;-68
2023/10/27 12:52:14;;;;;;;7.38;1.20;;;;;;;;;;4972552;28;20471;-68
2023/10/27 12:54:40;;;;;;;3.38;1.20;;;;;;;;;;4972606;28;20034;-68
2023/10/27 12:57:06;;;;;;;6.22;1.35;;;;;;;;;;4972555;28;20391;-68
2023/10/27 12:59:31;;;;;;;5.07;1.60;;;;;;;;;;4972574;28;20042;-68
2023/10/27 13:01:57;;;;;;;4.03;1.65;;;;;;;;;;4972308;28;20105;-68
2023/10/27 13:04:25;;;;;;;5.70;1.98;;;;;;;;;;4972434;28;20527;-68
2023/10/27 13:06:51;;;;;;;5.75;1.50;;;;;;;;;;4972653;28;20054;-68
2023/10/27 13:09:19;;;;;;;10.20;2.00;;;;;;;;;;4972379;28;20038;-68
2023/10/27 13:11:45;;;;;;;7.90;2.83;;;;;;;;;;4972652;28;20106;-67
2023/10/27 13:14:11;;;;;;;2.63;1.60;;;;;;;;;;4972252;28;20125;-68
2023/10/27 13:16:39;;;;;;;7.35;1.42;;;;;;;;;;4972233;28;20795;-68
2023/10/27 13:19:05;;;;;;;6.47;1.75;;;;;;;;;;4972277;28;20502;-68
2023/10/27 13:21:35;;;;;;;3.88;1.55;;;;;;;;;;4972151;28;20049;-68
2023/10/27 13:24:04;;;;;;;3.35;1.20;;;;;;;;;;4972216;28;20022;-68
2023/10/27 13:26:29;;;;;;;7.43;1.70;;;;;;;;;;4972226;28;20033;-68
2023/10/27 13:28:57;;;;;;;5.68;1.70;;;;;;;;;;4972086;28;20105;-68
2023/10/27 13:31:23;;;;;;;3.65;1.55;;;;;;;;;;4970781;28;20031;-69
2023/10/27 13:33:49;;;;;;;4.20;1.70;;;;;;;;;;4971725;28;20554;-69
2023/10/27 13:36:16;;;;;;;8.60;2.00;;;;;;;;;;4971901;28;20035;-69
2023/10/27 13:38:42;;;;;;;5.10;1.45;;;;;;;;;;4972415;28;20481;-68
2023/10/27 13:41:20;;;;;;;5.32;2.20;;;;;;;;;;4971998;28;20027;-68
2023/10/27 13:43:46;;;;;;;3.65;1.58;;;;;;;;;;4972050;28;20031;-68
2023/10/27 13:46:15;;;;;;;6.47;1.40;;;;;;;;;;4971904;28;20034;-69
2023/10/27 13:48:43;;;;;;;4.85;2.28;;;;;;;;;;4972041;28;20480;-68
2023/10/27 13:51:15;;;;;;;6.78;1.50;;;;;;;;;;4971847;28;20106;-68
2023/10/27 13:53:41;;;;;;;6.10;1.52;;;;;;;;;;4972007;28;20022;-69
2023/10/27 13:56:12;;;;;;;5.18;1.38;;;;;;;;;;4971762;28;20043;-68
2023/10/27 13:58:44;;;;;;;4.57;1.88;;;;;;;;;;4971893;28;20031;-68
2023/10/27 14:01:10;;;;;;;5.85;1.70;;;;;;;;;;4971623;28;20043;-68
2023/10/27 14:03:36;;;;;;;6.50;1.85;;;;;;;;;;4972454;28;20022;-67
2023/10/27 14:06:03;;;;;;;4.72;1.40;;;;;;;;;;4973279;28;20031;-67
2023/10/27 14:08:31;;;;;;;4.72;1.67;;;;;;;;;;4973279;28;20058;-66
2023/10/27 14:10:57;;;;;;;2.22;1.25;;;;;;;;;;4973212;28;20042;-67
2023/10/27 14:13:24;;;;;;;3.22;1.40;;;;;;;;;;4973205;28;20105;-67
2023/10/27 14:15:49;;;;;;;3.35;1.40;;;;;;;;;;4973156;28;20035;-66
2023/10/27 14:18:15;;;;;;;4.05;1.63;;;;;;;;;;4973073;28;20046;-68
2023/10/27 14:20:42;;;;;;;4.57;1.90;;;;;;;;;;4973264;28;20030;-69
2023/10/27 14:23:09;;;;;;;7.35;1.65;;;;;;;;;;4973062;28;20034;-68
2023/10/27 14:25:36;;;;;;;5.35;1.40;;;;;;;;;;4973217;28;20114;-68
2023/10/27 14:28:02;;;;;;;2.90;1.40;;;;;;;;;;4973162;28;20487;-68
2023/10/27 14:30:28;;;;;;;2.53;1.35;;;;;;;;;;4973084;28;20098;-69
2023/10/27 14:32:54;;;;;;;3.75;1.15;;;;;;;;;;4973070;28;20488;-68
2023/10/27 14:35:20;;;;;;;2.05;1.13;;;;;;;;;;4971528;28;20033;-68
2023/10/27 14:37:47;;;;;;;3.80;1.55;;;;;;;;;;4971522;28;20031;-68
2023/10/27 14:40:13;;;;;;;4.22;1.77;;;;;;;;;;4973872;28;20438;-68
2023/10/27 14:42:39;;;;;;;3.85;1.90;;;;;;;;;;4953787;28;20031;-67
2023/10/27 14:45:07;;;;;;;4.50;2.03;;;;;;;;;;4955515;28;20070;-67
2023/10/27 14:47:33;;;;;;;4.60;1.60;;;;;;;;;;4957395;28;20027;-67
2023/10/27 14:49:58;;;;;;;5.28;1.30;;;;;;;;;;4957398;28;20491;-67
2023/10/27 14:52:25;;;;;;;2.40;1.38;;;;;;;;;;4957436;28;20527;-67
2023/10/27 14:54:51;;;;;;;2.72;1.10;;;;;;;;;;4956969;28;20031;-67
2023/10/27 14:57:16;;;;;;;2.22;1.30;;;;;;;;;;4957051;28;20122;-67
2023/10/27 14:59:42;;;;;;;5.13;1.55;;;;;;;;;;4957329;28;20100;-67
2023/10/27 15:02:08;;;;;;;7.95;1.80;;;;;;;;;;4956781;28;20422;-67
2023/10/27 15:04:33;;;;;;;7.05;2.20;;;;;;;;;;4957213;28;20420;-67
2023/10/27 15:07:01;;;;;;;7.38;2.75;;;;;;;;;;4956930;29;20495;-67
2023/10/27 15:09:26;;;;;;;3.50;1.58;;;;;;;;;;4956759;28;20033;-67
2023/10/27 15:11:52;;;;;;;4.22;2.65;;;;;;;;;;4955557;28;20114;-67
2023/10/27 15:14:17;;;;;;;6.15;1.50;;;;;;;;;;4956706;28;20027;-67
2023/10/27 15:16:46;;;;;;;6.78;1.55;;;;;;;;;;4956637;28;20024;-67
2023/10/27 15:19:15;;;;;;;2.80;1.25;;;;;;;;;;4955477;28;20058;-67
2023/10/27 15:21:41;;;;;;;6.13;1.73;;;;;;;;;;4956787;28;20023;-67
2023/10/27 15:24:07;;;;;;;3.40;1.52;;;;;;;;;;4956565;28;20031;-67
2023/10/27 15:26:32;;;;;;;3.92;1.50;;;;;;;;;;4956593;28;20027;-69
2023/10/27 15:28:58;;;;;;;3.03;1.80;;;;;;;;;;4956398;28;20066;-68
2023/10/27 15:31:27;;;;;;;4.72;1.48;;;;;;;;;;4956467;28;20019;-68
2023/10/27 15:33:52;;;;;;;1.92;1.42;;;;;;;;;;4956657;28;20035;-68
2023/10/27 15:36:18;;;;;;;4.20;1.50;;;;;;;;;;4956189;28;20042;-67
2023/10/27 15:38:43;;;;;;;3.90;1.92;;;;;;;;;;4956290;28;20058;-67
2023/10/27 15:41:28;;;;;;;4.13;1.63;;;;;;;;;;4956226;28;20027;-67
2023/10/27 15:43:56;;;;;;;3.95;1.52;;;;;;;;;;4956198;28;20476;-67
2023/10/27 15:46:22;;;;;;;4.53;1.55;;;;;;;;;;4956155;28;20035;-68
2023/10/27 15:48:47;;;;;;;9.90;1.75;;;;;;;;;;4956170;28;20050;-67
2023/10/27 15:51:14;;;;;;;3.08;1.75;;;;;;;;;;4963593;28;20426;-67
2023/10/27 15:53:40;;;;;;;6.93;1.73;;;;;;;;;;4975549;28;20037;-67
2023/10/27 15:56:06;;;;;;;4.38;2.33;;;;;;;;;;4975090;28;20059;-67
2023/10/27 15:58:33;;;;;;;8.35;1.80;;;;;;;;;;4973908;28;20054;-66
2023/10/27 16:01:02;;;;;;;3.08;1.67;;;;;;;;;;4974978;28;20042;-67
2023/10/27 16:03:29;;;;;;;3.70;1.50;;;;;;;;;;4975234;28;20357;-66
2023/10/27 16:05:55;;;;;;;3.40;1.85;;;;;;;;;;4975282;28;20340;-67
2023/10/27 16:08:21;;;;;;;2.22;1.40;;;;;;;;;;4975313;28;20451;-67
2023/10/27 16:10:47;;;;;;;6.72;1.75;;;;;;;;;;4975064;28;20031;-67
2023/10/27 16:13:13;;;;;;;3.15;1.20;;;;;;;;;;4974838;28;20058;-67
2023/10/27 16:15:39;;;;;;;4.55;1.67;;;;;;;;;;4974930;28;20031;-68
2023/10/27 16:18:07;;;;;;;4.80;1.70;;;;;;;;;;4975166;28;20106;-67
2023/10/27 16:20:37;;;;;;;5.25;1.95;;;;;;;;;;4974863;28;20023;-67
2023/10/27 16:23:03;;;;;;;9.38;2.00;;;;;;;;;;4974928;28;20022;-67
2023/10/27 16:25:30;;;;;;;3.05;1.65;;;;;;;;;;4974690;28;20031;-67
2023/10/27 16:27:55;;;;;;;6.93;1.77;;;;;;;;;;4974659;28;20476;-67
2023/10/27 16:30:22;;;;;;;2.60;1.52;;;;;;;;;;4974317;28;20026;-67
2023/10/27 16:32:48;;;;;;;6.88;1.80;;;;;;;;;;4974696;28;20388;-68
2023/10/27 16:35:13;;;;;;;5.60;1.83;;;;;;;;;;4974385;28;20030;-67
2023/10/27 16:37:39;;;;;;;4.78;2.20;;;;;;;;;;4974309;28;20029;-67
2023/10/27 16:40:06;;;;;;;11.57;3.28;;;;;;;;;;4974391;28;20038;-66
2023/10/27 16:42:32;;;;;;;2.35;1.60;;;;;;;;;;4974401;28;20023;-66
2023/10/27 16:44:58;;;;;;;11.48;1.77;;;;;;;;;;4974281;28;20038;-69
2023/10/27 16:47:24;;;;;;;5.25;1.88;;;;;;;;;;4974186;28;20026;-67
2023/10/27 16:49:50;;;;;;;5.00;1.95;;;;;;;;;;4974058;28;20090;-67
2023/10/27 16:52:15;;;;;;;4.05;1.90;;;;;;;;;;4974023;28;20035;-67
2023/10/27 16:54:42;;;;;;;3.88;2.20;;;;;;;;;;4974306;28;20054;-68
2023/10/27 16:57:07;;;;;;;6.35;1.95;;;;;;;;;;4974258;28;20022;-67
2023/10/27 16:59:34;;;;;;;2.38;1.73;;;;;;;;;;4974154;28;20542;-66
2023/10/27 17:02:00;;;;;;;5.68;2.55;;;;;;;;;;4973864;28;20050;-67
2023/10/27 17:04:27;;;;;;;4.63;2.22;;;;;;;;;;4973925;28;20037;-68
2023/10/27 17:06:53;;;;;;;8.75;2.63;;;;;;;;;;4973223;28;20082;-68
2023/10/27 17:09:19;;;;;;;8.25;2.92;;;;;;;;;;4973665;28;20428;-66
2023/10/27 17:11:45;;;;;;;6.57;2.60;;;;;;;;;;4973746;28;20061;-66
2023/10/27 17:14:10;;;;;;;7.97;3.75;;;;;;;;;;4972535;28;20104;-66
2023/10/27 17:16:36;;;;;;;5.82;3.13;;;;;;;;;;4973733;28;20058;-68
2023/10/27 17:19:01;;;;;;;5.70;2.65;;;;;;;;;;4974002;28;20026;-67
2023/10/27 17:21:28;;;;;;;5.43;2.63;;;;;;;;;;4973648;28;20084;-68
2023/10/27 17:23:58;;;;;;;7.20;2.70;;;;;;;;;;4973929;28;20030;-66
2023/10/27 17:26:24;;;;;;;5.57;2.47;;;;;;;;;;4973825;28;20088;-67
2023/10/27 17:28:50;;;;;;;6.97;2.50;;;;;;;;;;4973709;28;20434;-67
2023/10/27 17:31:18;;;;;;;5.38;2.40;;;;;;;;;;4973377;28;20042;-68
2023/10/27 17:33:44;;;;;;;7.78;3.92;;;;;;;;;;4973822;28;20070;-68
2023/10/27 17:36:14;;;;;;;9.55;2.38;;;;;;;;;;4973464;28;20082;-67
2023/10/27 17:38:40;;;;;;;6.05;2.40;;;;;;;;;;4973300;28;20027;-68
2023/10/27 17:41:07;;;;;;;11.13;3.13;;;;;;;;;;4973469;28;20081;-67
2023/10/27 17:43:36;;;;;;;4.90;2.95;;;;;;;;;;4973195;28;20027;-67
2023/10/27 17:46:09;;;;;;;6.65;3.05;;;;;;;;;;4973617;28;20118;-69
2023/10/27 17:48:35;;;;;;;9.73;2.60;;;;;;;;;;4973212;28;20027;-66
2023/10/27 17:51:04;;;;;;;9.75;2.90;;;;;;;;;;4973263;28;20027;-66
2023/10/27 17:53:30;;;;;;;11.23;3.45;;;;;;;;;;4973085;28;20015;-67
2023/10/27 17:55:55;;;;;;;4.53;3.05;;;;;;;;;;4973218;28;20030;-66
2023/10/27 17:58:21;;;;;;;5.68;2.67;;;;;;;;;;4973172;28;20023;-68
2023/10/27 18:00:48;;;;;;;5.47;3.05;;;;;;;;;;4972941;28;20050;-67
2023/10/27 18:03:14;;;;;;;4.10;2.58;;;;;;;;;;4972212;28;20034;-67
2023/10/27 18:05:40;;;;;;;5.13;3.10;;;;;;;;;;4973188;28;20412;-66
2023/10/27 18:08:07;;;;;;;7.93;3.10;;;;;;;;;;4973234;28;20081;-67
2023/10/27 18:10:38;;;;;;;6.35;3.22;;;;;;;;;;4973273;28;20046;-67
2023/10/27 18:13:03;;;;;;;9.68;3.40;;;;;;;;;;4973197;28;20030;-67
2023/10/27 18:15:29;;;;;;;6.50;3.42;;;;;;;;;;4973240;28;20035;-66
2023/10/27 18:17:55;;;;;;;5.60;3.13;;;;;;;;;;4973047;28;20082;-66
2023/10/27 18:20:21;;;;;;;6.35;3.30;;;;;;;;;;4975157;28;20082;-66
2023/10/27 18:22:47;;;;;;;7.15;3.42;;;;;;;;;;4976785;28;20030;-67
2023/10/27 18:25:13;;;;;;;6.80;3.33;;;;;;;;;;4976788;28;20042;-66
2023/10/27 18:27:39;;;;;;;4.90;3.30;;;;;;;;;;4976589;28;20086;-66
2023/10/27 18:30:06;;;;;;;5.80;3.25;;;;;;;;;;4977072;28;20038;-65
2023/10/27 18:32:32;;;;;;;6.63;3.40;;;;;;;;;;4976771;28;20027;-66
2023/10/27 18:35:00;;;;;;;6.47;3.75;;;;;;;;;;4976804;28;20038;-66
2023/10/27 18:37:25;;;;;;;6.45;3.70;;;;;;;;;;4976565;28;20033;-66
2023/10/27 18:39:52;;;;;;;7.18;3.20;;;;;;;;;;4976552;28;20022;-68
2023/10/27 18:42:18;;;;;;;5.90;3.85;;;;;;;;;;4976844;28;20404;-66
2023/10/27 18:44:46;;;;;;;5.60;3.70;;;;;;;;;;4976717;28;20032;-65
2023/10/27 18:47:12;;;;;;;4.53;3.03;;;;;;;;;;4976240;28;20480;-66
2023/10/27 18:49:44;;;;;;;7.15;3.13;;;;;;;;;;4976336;28;20515;-66
2023/10/27 18:52:14;;;;;;;5.40;3.45;;;;;;;;;;4976653;28;20077;-66
2023/10/27 18:54:43;;;;;;;6.55;3.20;;;;;;;;;;4976564;28;20035;-67
2023/10/27 18:57:12;;;;;;;6.80;2.90;;;;;;;;;;4976087;28;20039;-67
2023/10/27 18:59:38;;;;;;;7.05;3.40;;;;;;;;;;4976118;28;20268;-66
2023/10/27 19:02:06;;;;;;;8.88;3.65;;;;;;;;;;4975971;28;20488;-66
2023/10/27 19:04:32;;;;;;;5.30;3.55;;;;;;;;;;4975964;28;20039;-66
2023/10/27 19:06:58;;;;;;;6.65;2.92;;;;;;;;;;4976332;28;20033;-67
2023/10/27 19:09:24;;;;;;;6.85;3.00;;;;;;;;;;4976267;28;20054;-66
2023/10/27 19:11:50;;;;;;;5.45;2.95;;;;;;;;;;4975986;28;20019;-66
2023/10/27 19:14:17;;;;;;;9.80;3.60;;;;;;;;;;4975943;28;20106;-67
2023/10/27 19:16:47;;;;;;;3.78;2.60;;;;;;;;;;4975898;28;20027;-67
2023/10/27 19:19:13;;;;;;;;;;;;;;;;;;4976446;28;20125;-66
2023/10/27 19:21:39;;;;;;;6.05;2.97;;;;;;;;;;4975840;28;20473;-65
2023/10/27 19:24:05;;;;;;;4.53;3.15;;;;;;;;;;4975767;28;20124;-66
2023/10/27 19:26:31;;;;;;;9.90;3.10;;;;;;;;;;4974865;28;20093;-66
2023/10/27 19:28:58;;;;;;;5.95;2.85;;;;;;;;;;4974520;28;20042;-66
2023/10/27 19:31:25;;;;;;;8.55;3.30;;;;;;;;;;4973355;28;20034;-66
2023/10/27 19:33:51;;;;;;;5.38;3.13;;;;;;;;;;4974422;28;20114;-66
2023/10/27 19:36:21;;;;;;;3.60;2.90;;;;;;;;;;4973939;28;20039;-66
2023/10/27 19:38:48;;;;;;;;;;;;;;;;;;4974477;28;20499;-66
2023/10/27 19:41:14;;;;;;;6.65;2.67;;;;;;;;;;4974099;28;19922;-65
2023/10/27 19:43:40;;;;;;;4.22;2.78;;;;;;;;;;4974128;28;20424;-67
2023/10/27 19:46:06;;;;;;;6.70;2.58;;;;;;;;;;4973899;28;20031;-65
2023/10/27 19:48:41;;;;;;;6.47;2.80;;;;;;;;;;4973817;28;20035;-66
2023/10/27 19:51:07;;;;;;;4.78;3.10;;;;;;;;;;4974206;28;20065;-66
2023/10/27 19:53:34;;;;;;;6.03;3.13;;;;;;;;;;4973561;28;20073;-65
2023/10/27 19:56:00;;;;;;;5.13;2.53;;;;;;;;;;4973642;28;20035;-65
2023/10/27 19:58:26;;;;;;;4.50;2.42;;;;;;;;;;4972918;28;20387;-64
2023/10/27 20:00:51;;;;;;;6.35;3.13;;;;;;;;;;4973296;28;20134;-65
2023/10/27 20:03:18;;;;;;;5.38;2.53;;;;;;;;;;4973461;28;20105;-66
2023/10/27 20:05:44;;;;;;;4.45;3.30;;;;;;;;;;4973619;28;20022;-66
2023/10/27 20:08:10;;;;;;;4.38;2.65;;;;;;;;;;4973599;28;20027;-65
2023/10/27 20:10:43;;;;;;;25.60;4.00;;;;;;;;;;4973449;28;20416;-66
2023/10/27 20:13:09;;;;;;;14.23;3.78;;;;;;;;;;4973624;28;20041;-66
2023/10/27 20:15:40;;;;;;;7.75;3.10;;;;;;;;;;4973120;28;20039;-65
2023/10/27 20:18:07;;;;;;;20.05;4.15;;;;;;;;;;4973367;28;20034;-65
2023/10/27 20:20:34;;;;;;;14.52;4.28;;;;;;;;;;4973158;28;20114;-65
2023/10/27 20:23:01;;;;;;;20.30;4.05;;;;;;;;;;4973310;28;20019;-66
2023/10/27 20:25:31;;;;;;;15.82;3.92;;;;;;;;;;4972914;28;20027;-65
2023/10/27 20:28:01;;;;;;;21.35;3.53;;;;;;;;;;4972878;28;20493;-65
2023/10/27 20:30:27;;;;;;;30.02;5.45;;;;;;;;;;4973033;28;20026;-69
2023/10/27 20:32:55;;;;;;;15.57;4.53;;;;;;;;;;4972777;28;20054;-65
2023/10/27 20:35:22;;;;;;;14.85;3.40;;;;;;;;;;4972786;28;20092;-66
2023/10/27 20:37:51;;;;;;;17.38;3.50;;;;;;;;;;4972975;28;20508;-67
2023/10/27 20:40:20;;;;;;;17.95;4.13;;;;;;;;;;4972941;28;20054;-66
2023/10/27 20:42:48;;;;;;;14.15;4.95;;;;;;;;;;4971956;28;20150;-66
2023/10/27 20:45:15;;;;;;;8.93;3.45;;;;;;;;;;4972763;28;20495;-65
2023/10/27 20:47:46;;;;;;;16.17;3.63;;;;;;;;;;4971382;28;20046;-66
2023/10/27 20:50:13;;;;;;;27.27;4.70;;;;;;;;;;4972735;28;20066;-66
2023/10/27 20:52:42;;;;;;;13.82;3.92;;;;;;;;;;4972843;28;20081;-64
2023/10/27 20:55:08;;;;;;;17.15;4.30;;;;;;;;;;4972899;28;20093;-64
2023/10/27 20:57:34;;;;;;;57.08;7.70;;;;;;;;;;4972569;28;20027;-68
2023/10/27 21:00:00;;;;;;;62.33;7.10;;;;;;;;;;4972650;28;20167;-65
2023/10/27 21:02:26;;;;;;;42.78;5.68;;;;;;;;;;4972412;28;20129;-65
2023/10/27 21:04:51;;;;;;;26.63;5.10;;;;;;;;;;4972380;28;20038;-65
2023/10/27 21:07:18;;;;;;;34.53;7.38;;;;;;;;;;4972464;28;20373;-65
2023/10/27 21:09:44;;;;;;;15.98;4.18;;;;;;;;;;4972400;28;20034;-64
2023/10/27 21:12:10;;;;;;;19.13;4.55;;;;;;;;;;4972296;28;20073;-65
2023/10/27 21:14:36;;;;;;;16.85;4.80;;;;;;;;;;4972245;28;20054;-69
2023/10/27 21:17:01;;;;;;;17.38;4.20;;;;;;;;;;4972278;28;20058;-67
2023/10/27 21:19:27;;;;;;;17.55;4.40;;;;;;;;;;4972074;28;20037;-64
2023/10/27 21:21:52;;;;;;;16.58;4.05;;;;;;;;;;4971739;28;20476;-66
2023/10/27 21:24:18;;;;;;;21.55;3.70;;;;;;;;;;4971546;28;20073;-67
2023/10/27 21:26:44;;;;;;;18.85;4.35;;;;;;;;;;4972164;28;20034;-64
2023/10/27 21:29:10;;;;;;;8.23;3.70;;;;;;;;;;4972364;28;20034;-64
2023/10/27 21:31:36;;;;;;;17.88;3.40;;;;;;;;;;4971307;28;20105;-67
2023/10/27 21:34:02;;;;;;;13.70;3.88;;;;;;;;;;4971815;28;20030;-65
2023/10/27 21:36:28;;;;;;;9.48;3.40;;;;;;;;;;4971876;28;20494;-68
2023/10/27 21:38:57;;;;;;;11.00;4.10;;;;;;;;;;4972419;28;20658;-64
2023/10/27 21:41:26;;;;;;;11.68;3.85;;;;;;;;;;4971241;28;20027;-68
2023/10/27 21:43:52;;;;;;;13.70;3.50;;;;;;;;;;4972137;28;20092;-68
2023/10/27 21:46:20;;;;;;;10.82;3.40;;;;;;;;;;4972006;28;20063;-67
2023/10/27 21:48:45;;;;;;;11.20;3.70;;;;;;;;;;4971882;28;20034;-64
2023/10/27 21:51:14;;;;;;;20.17;3.78;;;;;;;;;;4971972;28;20035;-69
2023/10/27 21:53:41;;;;;;;17.23;4.20;;;;;;;;;;4973547;28;20027;-70
2023/10/27 21:56:10;;;;;;;9.90;3.25;;;;;;;;;;4977473;28;20499;-72
2023/10/27 21:58:40;;;;;;;17.45;3.63;;;;;;;;;;4977472;28;20598;-72
2023/10/27 22:01:08;;;;;;;17.70;4.07;;;;;;;;;;4977206;28;20503;-70
2023/10/27 22:03:37;;;;;;;18.90;3.67;;;;;;;;;;4976183;28;20331;-73
2023/10/27 22:06:06;;;;;;;11.63;3.17;;;;;;;;;;4977424;28;20093;-72
2023/10/27 22:08:41;;;;;;;15.35;3.75;;;;;;;;;;4977253;28;20436;-71
2023/10/27 22:11:07;;;;;;;16.48;3.67;;;;;;;;;;4976707;28;20065;-72
2023/10/27 22:13:35;;;;;;;17.42;3.45;;;;;;;;;;4976942;28;20019;-70
2023/10/27 22:16:02;;;;;;;12.85;3.20;;;;;;;;;;4976549;28;20046;-68
2023/10/27 22:18:28;;;;;;;8.73;3.03;;;;;;;;;;4976872;28;20042;-73
2023/10/27 22:20:53;;;;;;;10.93;2.70;;;;;;;;;;4977343;28;20447;-67
2023/10/27 22:23:21;;;;;;;9.07;3.20;;;;;;;;;;4977209;28;20038;-68
2023/10/27 22:25:47;;;;;;;13.65;3.00;;;;;;;;;;4976813;28;20027;-68
2023/10/27 22:28:13;;;;;;;17.30;3.72;;;;;;;;;;4976770;28;20077;-74
2023/10/27 22:30:39;;;;;;;6.70;2.72;;;;;;;;;;4976389;28;20029;-71
2023/10/27 22:33:06;;;;;;;10.75;2.42;;;;;;;;;;4976380;28;20023;-69
2023/10/27 22:35:32;;;;;;;8.50;2.08;;;;;;;;;;4976617;28;20023;-67
2023/10/27 22:37:58;;;;;;;6.93;2.92;;;;;;;;;;4976659;28;20038;-70
2023/10/27 22:40:27;;;;;;;6.30;2.10;;;;;;;;;;4976868;28;20022;-67
2023/10/27 22:42:53;;;;;;;6.20;2.25;;;;;;;;;;4973734;28;20030;-67